createdAt,value
2019-05-19T00:00:22.130Z,15.04
2019-05-19T00:01:22.124Z,15.09
2019-05-19T00:02:22.120Z,15.09
2019-05-19T00:03:22.104Z,15.03
2019-05-19T00:04:22.087Z,15.00
2019-05-19T00:05:22.091Z,14.94
2019-05-19T00:06:22.065Z,14.92
2019-05-19T00:07:22.050Z,14.94
2019-05-19T00:08:22.047Z,14.86
2019-05-19T00:09:22.040Z,14.73
2019-05-19T00:10:22.018Z,14.85
2019-05-19T00:11:22.273Z,14.73
2019-05-19T00:12:21.995Z,14.78
2019-05-19T00:13:21.990Z,14.73
2019-05-19T00:14:21.975Z,14.70
2019-05-19T00:15:21.964Z,14.65
2019-05-19T00:16:21.954Z,14.60
2019-05-19T00:17:21.967Z,14.62
2019-05-19T00:18:21.929Z,14.60
2019-05-19T00:19:26.605Z,14.58
2019-05-19T00:20:22.907Z,14.60
2019-05-19T00:21:21.896Z,14.59
2019-05-19T00:22:21.897Z,14.58
2019-05-19T00:23:21.874Z,14.58
2019-05-19T00:24:21.861Z,14.60
2019-05-19T00:25:21.857Z,14.62
2019-05-19T00:26:21.838Z,14.63
2019-05-19T00:27:21.842Z,14.63
2019-05-19T00:28:21.822Z,14.59
2019-05-19T00:29:21.809Z,14.53
2019-05-19T00:30:21.799Z,14.51
2019-05-19T00:31:21.786Z,14.53
2019-05-19T00:32:21.815Z,14.51
2019-05-19T00:33:21.762Z,14.54
2019-05-19T00:34:21.751Z,14.50
2019-05-19T00:35:21.743Z,14.51
2019-05-19T00:36:21.734Z,14.54
2019-05-19T00:37:21.722Z,14.48
2019-05-19T00:38:21.848Z,14.51
2019-05-19T00:39:21.713Z,14.51
2019-05-19T00:40:21.691Z,14.48
2019-05-19T00:41:21.684Z,14.54
2019-05-19T00:42:21.672Z,14.45
2019-05-19T00:43:21.652Z,14.50
2019-05-19T00:44:21.655Z,14.50
2019-05-19T00:45:21.629Z,14.47
2019-05-19T00:46:21.619Z,14.43
2019-05-19T00:47:21.610Z,14.48
2019-05-19T00:48:21.597Z,14.55
2019-05-19T00:49:21.605Z,14.48
2019-05-19T00:50:21.587Z,14.58
2019-05-19T00:51:21.565Z,14.51
2019-05-19T00:52:21.557Z,14.47
2019-05-19T00:53:21.543Z,14.41
2019-05-19T00:54:21.575Z,14.47
2019-05-19T00:55:21.554Z,14.47
2019-05-19T00:56:21.505Z,14.45
2019-05-19T00:57:21.499Z,14.43
2019-05-19T00:58:21.483Z,14.37
2019-05-19T00:59:21.485Z,14.26
2019-05-19T01:00:21.465Z,14.33
2019-05-19T01:01:21.484Z,14.26
2019-05-19T01:02:21.439Z,14.28
2019-05-19T01:03:21.430Z,14.30
2019-05-19T01:04:21.422Z,14.29
2019-05-19T01:05:21.409Z,14.32
2019-05-19T01:06:21.412Z,14.25
2019-05-19T01:07:21.559Z,14.26
2019-05-19T01:08:21.378Z,14.32
2019-05-19T01:09:21.387Z,14.30
2019-05-19T01:10:21.352Z,14.32
2019-05-19T01:11:21.347Z,14.33
2019-05-19T01:12:21.372Z,14.45
2019-05-19T01:13:21.371Z,14.47
2019-05-19T01:14:21.315Z,14.50
2019-05-19T01:15:21.311Z,14.50
2019-05-19T01:16:21.290Z,14.50
2019-05-19T01:17:21.280Z,14.45
2019-05-19T01:18:21.420Z,14.44
2019-05-19T01:19:21.259Z,14.40
2019-05-19T01:20:21.336Z,14.44
2019-05-19T01:21:21.327Z,14.45
2019-05-19T01:22:21.233Z,14.48
2019-05-19T01:23:21.323Z,14.51
2019-05-19T01:24:21.333Z,14.44
2019-05-19T01:25:21.237Z,14.45
2019-05-19T01:26:21.249Z,14.43
2019-05-19T01:27:21.266Z,14.45
2019-05-19T01:28:21.273Z,14.51
2019-05-19T01:29:21.282Z,14.48
2019-05-19T01:30:21.291Z,14.44
2019-05-19T01:31:21.318Z,14.47
2019-05-19T01:32:21.177Z,14.47
2019-05-19T01:33:23.264Z,14.45
2019-05-19T01:37:01.592Z,14.25
2019-05-19T01:38:01.583Z,14.25
2019-05-19T01:39:01.418Z,14.28
2019-05-19T01:40:01.439Z,14.36
2019-05-19T01:41:01.295Z,14.29
2019-05-19T01:42:02.838Z,14.32
2019-05-19T01:44:35.822Z,14.22
2019-05-19T01:45:36.648Z,14.22
2019-05-19T01:46:35.200Z,14.18
2019-05-19T01:47:34.612Z,14.15
2019-05-19T01:48:34.619Z,14.17
2019-05-19T01:49:34.793Z,14.14
2019-05-19T01:50:35.246Z,14.15
2019-05-19T01:51:34.905Z,14.15
2019-05-19T01:52:34.752Z,14.18
2019-05-19T01:53:34.635Z,14.14
2019-05-19T01:54:34.457Z,14.14
2019-05-19T01:55:34.463Z,14.15
2019-05-19T02:20:37.941Z,14.08
2019-05-19T02:21:37.414Z,14.05
2019-05-19T02:22:36.909Z,14.07
2019-05-19T02:23:36.608Z,14.00
2019-05-19T02:24:37.123Z,14.03
2019-05-19T02:25:36.728Z,14.05
2019-05-19T02:26:36.625Z,13.92
2019-05-19T02:27:36.740Z,14.04
2019-05-19T02:28:36.541Z,13.95
2019-05-19T02:29:36.546Z,13.95
2019-05-19T02:30:36.760Z,13.96
2019-05-19T02:31:36.663Z,13.93
2019-05-19T02:32:36.778Z,13.96
2019-05-19T02:33:36.781Z,13.86
2019-05-19T02:34:36.580Z,13.83
2019-05-19T02:35:36.795Z,13.75
2019-05-19T02:36:36.489Z,13.77
2019-05-19T02:37:36.499Z,13.79
2019-05-19T02:38:36.406Z,13.83
2019-05-19T02:39:36.405Z,13.74
2019-05-19T02:40:36.619Z,13.72
2019-05-19T02:41:36.628Z,13.72
2019-05-19T02:42:36.428Z,13.72
2019-05-19T02:43:36.743Z,13.70
2019-05-19T02:44:36.655Z,13.77
2019-05-19T02:45:37.669Z,13.72
2019-05-19T02:46:36.462Z,13.62
2019-05-19T02:47:36.777Z,13.67
2019-05-19T02:48:36.796Z,13.74
2019-05-19T02:49:36.379Z,13.74
2019-05-19T02:50:58.093Z,13.71
2019-05-19T02:51:36.286Z,13.72
2019-05-19T02:52:36.295Z,13.63
2019-05-19T02:53:36.401Z,13.62
2019-05-19T02:54:36.221Z,13.60
2019-05-19T02:55:36.214Z,13.50
2019-05-19T02:56:36.222Z,13.52
2019-05-19T02:57:36.329Z,13.59
2019-05-19T02:58:36.439Z,13.63
2019-05-19T02:59:37.079Z,13.54
2019-05-19T03:00:36.143Z,13.59
2019-05-19T03:01:36.155Z,13.54
2019-05-19T03:02:36.777Z,13.68
2019-05-19T03:03:36.164Z,13.60
2019-05-19T03:04:36.291Z,13.62
2019-05-19T03:05:36.180Z,13.65
2019-05-19T03:06:36.093Z,13.62
2019-05-19T03:07:36.125Z,13.63
2019-05-19T03:08:36.098Z,13.67
2019-05-19T03:09:36.100Z,13.65
2019-05-19T03:10:36.210Z,13.74
2019-05-19T03:11:36.118Z,13.70
2019-05-19T03:12:36.024Z,13.77
2019-05-19T03:13:36.132Z,13.74
2019-05-19T03:14:36.138Z,13.67
2019-05-19T03:15:36.042Z,13.68
2019-05-19T03:16:36.145Z,13.77
2019-05-19T03:17:35.954Z,13.71
2019-05-19T03:18:35.969Z,13.75
2019-05-19T03:19:35.968Z,13.77
2019-05-19T03:20:36.181Z,13.72
2019-05-19T03:21:36.099Z,13.75
2019-05-19T03:22:36.044Z,13.79
2019-05-19T03:23:35.898Z,13.87
2019-05-19T03:24:35.902Z,13.79
2019-05-19T03:25:35.919Z,13.78
2019-05-19T03:26:36.122Z,13.90
2019-05-19T03:27:36.031Z,13.77
2019-05-19T03:28:35.929Z,13.78
2019-05-19T03:29:35.835Z,13.75
2019-05-19T03:30:36.140Z,13.79
2019-05-19T03:31:35.856Z,13.83
2019-05-19T03:32:35.854Z,13.90
2019-05-19T03:33:35.985Z,13.86
2019-05-19T03:34:35.869Z,13.92
2019-05-19T03:35:35.776Z,13.87
2019-05-19T03:36:35.778Z,14.00
2019-05-19T03:37:35.888Z,14.04
2019-05-19T03:38:35.797Z,13.99
2019-05-19T03:39:35.802Z,14.11
2019-05-19T03:40:36.325Z,14.12
2019-05-19T03:41:35.714Z,14.12
2019-05-19T03:42:35.732Z,14.14
2019-05-19T03:43:36.037Z,14.15
2019-05-19T03:44:35.706Z,14.14
2019-05-19T03:45:35.634Z,14.17
2019-05-19T03:46:36.876Z,14.17
2019-05-19T03:47:35.760Z,14.29
2019-05-19T03:48:35.655Z,14.25
2019-05-19T03:49:35.677Z,14.35
2019-05-19T03:50:35.777Z,14.26
2019-05-19T03:51:35.578Z,14.32
2019-05-19T03:52:35.789Z,14.47
2019-05-19T03:53:35.613Z,14.48
2019-05-19T03:54:35.701Z,14.47
2019-05-19T03:55:35.607Z,14.50
2019-05-19T03:56:35.717Z,14.54
2019-05-19T03:57:35.513Z,14.54
2019-05-19T03:58:35.524Z,14.63
2019-05-19T03:59:35.732Z,14.60
2019-05-19T04:00:35.642Z,14.60
2019-05-19T04:01:35.548Z,14.58
2019-05-19T04:02:35.549Z,14.66
2019-05-19T04:03:35.560Z,14.66
2019-05-19T04:04:35.460Z,14.63
2019-05-19T04:05:35.573Z,14.66
2019-05-19T04:06:35.415Z,14.69
2019-05-19T04:07:35.421Z,14.60
2019-05-19T04:08:35.592Z,14.60
2019-05-19T04:09:35.445Z,14.70
2019-05-19T04:10:35.499Z,14.59
2019-05-19T04:11:35.414Z,14.66
2019-05-19T04:12:35.515Z,14.72
2019-05-19T04:13:35.834Z,14.78
2019-05-19T04:14:35.639Z,14.68
2019-05-19T04:15:35.334Z,14.78
2019-05-19T04:16:35.336Z,14.77
2019-05-19T04:17:35.626Z,14.78
2019-05-19T04:18:35.455Z,14.77
2019-05-19T04:19:36.689Z,14.82
2019-05-19T04:20:35.260Z,14.73
2019-05-19T04:21:48.132Z,14.84
2019-05-19T04:22:36.307Z,14.89
2019-05-19T04:23:35.297Z,14.84
2019-05-19T04:24:36.112Z,14.94
2019-05-19T04:26:56.912Z,15.03
2019-05-19T04:27:56.098Z,15.06
2019-05-19T04:28:56.104Z,15.17
2019-05-19T04:29:56.164Z,15.24
2019-05-19T04:30:56.118Z,15.19
2019-05-19T04:31:56.022Z,15.24
2019-05-19T04:34:17.760Z,15.55
2019-05-19T04:35:17.603Z,15.59
2019-05-19T04:36:17.509Z,15.59
2019-05-19T04:37:17.510Z,15.62
2019-05-19T04:39:39.653Z,15.80
2019-05-19T04:40:39.195Z,15.80
2019-05-19T04:41:40.270Z,15.92
2019-05-19T04:42:39.204Z,15.91
2019-05-19T04:43:39.017Z,15.97
2019-05-19T04:44:39.641Z,15.98
2019-05-19T04:45:51.307Z,16.01
2019-05-19T04:46:39.714Z,16.02
2019-05-19T04:47:39.003Z,16.15
2019-05-19T04:48:38.997Z,16.09
2019-05-19T04:49:38.947Z,16.23
2019-05-19T04:50:39.978Z,16.29
2019-05-19T04:51:39.347Z,16.28
2019-05-19T04:52:39.773Z,16.29
2019-05-19T04:53:40.309Z,16.43
2019-05-19T04:54:39.088Z,16.46
2019-05-19T04:55:39.255Z,16.43
2019-05-19T04:56:39.061Z,16.49
2019-05-19T04:57:38.904Z,16.46
2019-05-19T04:58:39.025Z,16.43
2019-05-19T04:59:38.993Z,16.49
2019-05-19T05:00:39.293Z,16.54
2019-05-19T05:01:38.830Z,16.46
2019-05-19T05:02:39.140Z,16.51
2019-05-19T05:03:38.851Z,16.65
2019-05-19T05:04:38.848Z,16.47
2019-05-19T05:05:39.368Z,16.46
2019-05-19T05:06:38.770Z,16.65
2019-05-19T05:07:38.771Z,16.58
2019-05-19T05:08:39.087Z,16.60
2019-05-19T05:09:38.787Z,16.68
2019-05-19T05:10:38.788Z,16.72
2019-05-19T05:11:38.713Z,16.81
2019-05-19T05:12:38.699Z,16.99
2019-05-19T05:13:38.807Z,16.87
2019-05-19T05:14:38.867Z,16.91
2019-05-19T05:15:38.721Z,17.05
2019-05-19T05:16:38.843Z,17.11
2019-05-19T05:17:38.628Z,17.02
2019-05-19T05:18:38.644Z,17.04
2019-05-19T05:19:38.750Z,17.09
2019-05-19T05:20:38.649Z,17.05
2019-05-19T05:21:38.867Z,17.02
2019-05-19T05:22:39.249Z,16.99
2019-05-19T05:23:38.573Z,17.15
2019-05-19T05:24:38.679Z,17.09
2019-05-19T05:25:38.592Z,17.16
2019-05-19T05:26:38.598Z,17.19
2019-05-19T05:27:38.607Z,17.14
2019-05-19T05:28:38.611Z,17.14
2019-05-19T05:29:39.323Z,17.23
2019-05-19T05:30:38.689Z,17.16
2019-05-19T05:31:38.726Z,17.09
2019-05-19T05:32:38.530Z,17.04
2019-05-19T05:33:38.559Z,17.05
2019-05-19T05:34:38.453Z,17.05
2019-05-19T05:35:38.691Z,17.06
2019-05-19T05:36:38.453Z,17.19
2019-05-19T05:37:38.530Z,17.27
2019-05-19T05:38:38.485Z,17.23
2019-05-19T05:39:38.582Z,17.16
2019-05-19T05:40:38.388Z,17.26
2019-05-19T05:41:38.384Z,17.23
2019-05-19T05:42:39.932Z,17.30
2019-05-19T05:43:38.624Z,17.38
2019-05-19T05:44:38.410Z,17.49
2019-05-19T05:45:38.411Z,17.49
2019-05-19T05:46:38.313Z,17.56
2019-05-19T05:47:38.422Z,17.46
2019-05-19T05:48:38.852Z,17.67
2019-05-19T05:49:38.340Z,17.74
2019-05-19T05:50:38.356Z,17.82
2019-05-19T05:51:38.463Z,17.85
2019-05-19T05:52:39.148Z,17.92
2019-05-19T05:53:38.377Z,18.04
2019-05-19T17:21:30.413Z,23.20
2019-05-19T17:22:30.393Z,23.24
2019-05-19T17:23:30.477Z,23.28
2019-05-19T17:24:30.364Z,23.34
2019-05-19T17:25:30.360Z,23.31
2019-05-19T17:26:30.340Z,23.25
2019-05-19T17:27:30.325Z,23.27
2019-05-19T17:28:30.322Z,23.21
2019-05-19T17:29:30.647Z,23.20
2019-05-19T17:30:30.328Z,23.25
2019-05-19T17:31:30.288Z,23.23
2019-05-19T17:32:30.283Z,23.15
2019-05-19T17:33:30.271Z,23.18
2019-05-19T17:34:30.261Z,23.13
2019-05-19T17:35:30.277Z,23.17
2019-05-19T17:36:30.243Z,23.09
2019-05-19T17:37:30.221Z,23.20
2019-05-19T17:38:30.203Z,23.09
2019-05-19T17:39:30.257Z,23.09
2019-05-19T17:40:30.214Z,23.15
2019-05-19T17:41:30.180Z,23.13
2019-05-19T17:42:30.164Z,23.08
2019-05-19T17:43:30.157Z,23.09
2019-05-19T17:44:30.149Z,22.96
2019-05-19T17:45:30.287Z,23.12
2019-05-19T17:46:30.138Z,23.15
2019-05-19T17:47:30.117Z,22.99
2019-05-19T17:48:30.105Z,23.05
2019-05-19T17:49:30.092Z,23.08
2019-05-19T17:50:30.092Z,23.08
2019-05-19T17:51:30.084Z,23.12
2019-05-19T17:52:30.064Z,23.10
2019-05-19T17:53:30.109Z,23.09
2019-05-19T17:54:30.058Z,23.12
2019-05-19T17:55:30.029Z,23.10
2019-05-19T17:56:30.035Z,23.15
2019-05-19T17:57:30.007Z,23.02
2019-05-19T17:58:30.030Z,23.05
2019-05-19T17:59:30.002Z,23.03
2019-05-19T18:00:29.981Z,22.87
2019-05-19T18:01:29.997Z,22.93
2019-05-19T18:02:29.945Z,22.84
2019-05-19T18:03:29.944Z,22.84
2019-05-19T18:04:29.927Z,22.75
2019-05-19T18:05:29.935Z,22.83
2019-05-19T18:06:29.952Z,22.70
2019-05-19T18:07:30.023Z,22.72
2019-05-19T18:08:29.885Z,22.78
2019-05-19T18:09:29.897Z,22.75
2019-05-19T18:10:29.870Z,22.75
2019-05-19T18:11:29.867Z,22.68
2019-05-19T18:12:29.838Z,22.73
2019-05-19T18:13:39.361Z,22.60
2019-05-19T18:14:29.806Z,22.59
2019-05-19T18:15:29.809Z,22.55
2019-05-19T18:16:29.831Z,22.57
2019-05-19T18:17:29.794Z,22.55
2019-05-19T18:18:29.782Z,22.45
2019-05-19T18:19:29.784Z,22.47
2019-05-19T18:20:29.746Z,22.43
2019-05-19T18:21:29.729Z,22.41
2019-05-19T18:22:29.789Z,22.38
2019-05-19T18:23:29.750Z,22.38
2019-05-19T18:24:29.700Z,22.43
2019-05-19T18:25:29.779Z,22.43
2019-05-19T18:26:29.687Z,22.36
2019-05-19T18:27:29.664Z,22.48
2019-05-19T18:28:29.892Z,22.39
2019-05-19T18:29:31.658Z,22.47
2019-05-19T18:30:29.625Z,22.38
2019-05-19T18:31:31.194Z,22.50
2019-05-19T18:32:29.601Z,22.45
2019-05-19T18:33:29.597Z,22.48
2019-05-19T18:34:29.602Z,22.50
2019-05-19T18:35:29.621Z,22.50
2019-05-19T18:36:29.587Z,22.39
2019-05-19T18:37:29.577Z,22.44
2019-05-19T18:38:29.542Z,22.50
2019-05-19T18:39:29.528Z,22.53
2019-05-19T18:40:29.515Z,22.54
2019-05-19T18:41:29.524Z,22.47
2019-05-19T18:42:29.497Z,22.53
2019-05-19T18:43:29.519Z,22.48
2019-05-19T18:44:29.473Z,22.55
2019-05-19T18:45:29.497Z,22.51
2019-05-19T18:46:29.456Z,22.53
2019-05-19T18:47:29.454Z,22.51
2019-05-19T18:48:29.464Z,22.53
2019-05-19T18:49:29.506Z,22.51
2019-05-19T18:50:29.418Z,22.54
2019-05-19T18:51:29.463Z,22.55
2019-05-19T18:52:29.396Z,22.55
2019-05-19T18:53:29.437Z,22.55
2019-05-19T18:54:29.367Z,22.45
2019-05-19T18:55:29.359Z,22.51
2019-05-19T18:56:29.348Z,22.41
2019-05-19T18:57:29.351Z,22.35
2019-05-19T18:58:29.329Z,22.36
2019-05-19T18:59:29.303Z,22.33
2019-05-19T19:00:29.320Z,22.30
2019-05-19T19:01:29.287Z,22.25
2019-05-19T19:02:29.292Z,22.11
2019-05-19T19:03:29.266Z,22.11
2019-05-19T19:04:29.274Z,22.13
2019-05-19T19:05:29.245Z,22.11
2019-05-19T19:06:29.235Z,22.13
2019-05-19T19:07:29.559Z,22.00
2019-05-19T19:08:29.220Z,22.00
2019-05-19T19:09:29.216Z,21.99
2019-05-19T19:10:29.186Z,21.99
2019-05-19T19:11:29.218Z,21.98
2019-05-19T19:12:29.208Z,21.93
2019-05-19T19:13:29.156Z,21.98
2019-05-19T19:14:29.144Z,21.95
2019-05-19T19:15:29.138Z,21.91
2019-05-19T19:16:29.114Z,21.89
2019-05-19T19:17:29.101Z,21.82
2019-05-19T19:18:29.112Z,21.75
2019-05-19T19:19:29.107Z,21.79
2019-05-19T19:20:29.087Z,21.80
2019-05-19T19:21:29.063Z,21.80
2019-05-19T19:22:29.063Z,21.76
2019-05-19T19:23:29.035Z,21.69
2019-05-19T19:24:29.092Z,21.70
2019-05-19T19:25:29.042Z,21.64
2019-05-19T19:26:29.005Z,21.73
2019-05-19T19:27:29.013Z,21.75
2019-05-19T19:28:28.980Z,21.72
2019-05-19T19:29:28.979Z,21.75
2019-05-19T19:30:28.964Z,21.62
2019-05-19T19:31:28.966Z,21.72
2019-05-19T19:32:28.943Z,21.67
2019-05-19T19:33:28.943Z,21.67
2019-05-19T19:34:28.920Z,21.61
2019-05-19T19:35:38.312Z,21.69
2019-05-19T19:36:30.158Z,21.69
2019-05-19T19:37:28.909Z,21.69
2019-05-19T19:38:28.871Z,21.69
2019-05-19T19:39:28.878Z,21.67
2019-05-19T19:40:28.858Z,21.58
2019-05-19T19:41:28.855Z,21.57
2019-05-19T19:42:28.841Z,21.58
2019-05-19T19:43:28.852Z,21.61
2019-05-19T19:44:28.810Z,21.61
2019-05-19T19:45:28.805Z,21.52
2019-05-19T19:46:28.806Z,21.50
2019-05-19T19:47:28.787Z,21.57
2019-05-19T19:48:28.769Z,21.46
2019-05-19T19:49:28.753Z,21.50
2019-05-19T19:50:28.783Z,21.42
2019-05-19T19:51:28.766Z,21.42
2019-05-19T19:52:28.822Z,21.36
2019-05-19T19:53:28.791Z,21.37
2019-05-19T19:54:28.717Z,21.33
2019-05-19T19:55:28.687Z,21.29
2019-05-19T19:56:28.719Z,21.30
2019-05-19T19:57:28.668Z,21.36
2019-05-19T19:58:28.678Z,21.32
2019-05-19T19:59:28.715Z,21.27
2019-05-19T20:00:28.643Z,21.29
2019-05-19T20:01:28.672Z,21.27
2019-05-19T20:02:28.615Z,21.17
2019-05-19T20:03:28.616Z,21.17
2019-05-19T20:04:28.625Z,21.18
2019-05-19T20:05:28.635Z,21.21
2019-05-19T20:06:28.617Z,21.07
2019-05-19T20:07:28.551Z,21.12
2019-05-19T20:08:28.564Z,21.11
2019-05-19T20:09:28.556Z,21.06
2019-05-19T20:10:28.553Z,21.07
2019-05-19T20:11:28.575Z,21.06
2019-05-19T20:12:28.500Z,21.06
2019-05-19T20:13:28.502Z,21.06
2019-05-19T20:14:28.480Z,21.05
2019-05-19T20:15:28.491Z,20.97
2019-05-19T20:16:28.474Z,20.97
2019-05-19T20:17:28.459Z,21.02
2019-05-19T20:18:28.439Z,21.03
2019-05-19T20:19:28.710Z,20.93
2019-05-19T20:20:28.437Z,20.99
2019-05-19T20:21:28.407Z,20.99
2019-05-19T20:22:28.388Z,20.95
2019-05-19T20:23:28.375Z,20.95
2019-05-19T20:24:28.365Z,20.95
2019-05-19T20:25:28.581Z,21.02
2019-05-19T20:26:28.377Z,21.00
2019-05-19T20:27:28.357Z,20.95
2019-05-19T20:28:28.336Z,20.99
2019-05-19T20:29:28.312Z,20.99
2019-05-19T20:30:35.558Z,20.96
2019-05-19T20:31:31.432Z,20.97
2019-05-19T20:32:28.302Z,20.95
2019-05-19T20:33:28.267Z,20.96
2019-05-19T20:34:28.256Z,20.97
2019-05-19T20:35:28.247Z,20.95
2019-05-19T20:36:28.265Z,20.97
2019-05-19T20:37:28.280Z,20.97
2019-05-19T20:38:28.229Z,20.93
2019-05-19T20:39:28.218Z,20.90
2019-05-19T20:40:28.200Z,20.96
2019-05-19T20:41:28.180Z,20.95
2019-05-19T20:42:28.180Z,20.90
2019-05-19T20:43:28.246Z,20.90
2019-05-19T20:44:28.191Z,20.95
2019-05-19T20:45:28.140Z,20.87
2019-05-19T20:46:28.149Z,20.87
2019-05-19T20:47:28.113Z,20.80
2019-05-19T20:48:28.103Z,20.85
2019-05-19T20:49:28.109Z,20.81
2019-05-19T20:50:28.076Z,20.80
2019-05-19T20:51:28.150Z,20.77
2019-05-19T20:52:28.063Z,20.78
2019-05-19T20:53:28.052Z,20.74
2019-05-19T20:54:28.058Z,20.74
2019-05-19T20:55:28.046Z,20.74
2019-05-19T20:56:28.015Z,20.72
2019-05-19T20:57:28.005Z,20.72
2019-05-19T20:58:28.018Z,20.67
2019-05-19T20:59:28.011Z,20.62
2019-05-19T21:00:28.018Z,20.60
2019-05-19T21:01:27.959Z,20.63
2019-05-19T21:02:27.972Z,20.63
2019-05-19T21:03:27.962Z,20.51
2019-05-19T21:04:27.922Z,20.47
2019-05-19T21:05:28.209Z,20.48
2019-05-19T21:06:27.906Z,20.34
2019-05-19T21:07:27.918Z,20.48
2019-05-19T21:08:27.872Z,20.41
2019-05-19T21:09:27.868Z,20.29
2019-05-19T21:10:27.861Z,20.34
2019-05-19T21:11:27.863Z,20.21
2019-05-19T21:12:27.869Z,20.26
2019-05-19T21:13:27.823Z,20.21
2019-05-19T21:14:27.812Z,20.25
2019-05-19T21:15:27.806Z,20.19
2019-05-19T21:16:27.810Z,20.13
2019-05-19T21:17:27.786Z,20.09
2019-05-19T21:18:27.768Z,20.06
2019-05-19T21:19:27.755Z,19.96
2019-05-19T21:20:27.741Z,20.03
2019-05-19T21:21:27.757Z,19.99
2019-05-19T21:22:27.730Z,19.88
2019-05-19T21:23:27.721Z,19.86
2019-05-19T21:24:27.704Z,19.91
2019-05-19T21:25:27.698Z,19.86
2019-05-19T21:26:27.729Z,19.82
2019-05-19T21:27:27.687Z,19.89
2019-05-19T21:28:27.662Z,19.85
2019-05-19T21:29:27.644Z,19.82
2019-05-19T21:30:27.632Z,19.84
2019-05-19T21:31:27.621Z,19.82
2019-05-19T21:32:27.611Z,19.66
2019-05-19T21:33:27.650Z,19.66
2019-05-19T21:34:27.632Z,19.62
2019-05-19T21:35:27.572Z,19.69
2019-05-19T21:36:27.585Z,19.56
2019-05-19T21:37:27.918Z,19.59
2019-05-19T21:38:27.545Z,19.59
2019-05-19T21:39:27.533Z,19.66
2019-05-19T21:40:27.531Z,19.58
2019-05-19T21:41:27.509Z,19.58
2019-05-19T21:42:27.535Z,19.54
2019-05-19T21:43:27.488Z,19.48
2019-05-19T21:44:27.527Z,19.54
2019-05-19T21:45:27.481Z,19.51
2019-05-19T21:46:27.504Z,19.52
2019-05-19T21:47:27.489Z,19.49
2019-05-19T21:48:27.441Z,19.37
2019-05-19T21:49:27.431Z,19.37
2019-05-19T21:50:27.616Z,19.37
2019-05-19T21:51:27.453Z,19.30
2019-05-19T21:52:27.430Z,19.29
2019-05-19T21:53:27.438Z,19.22
2019-05-19T21:54:27.423Z,19.24
2019-05-19T21:55:27.427Z,19.21
2019-05-19T21:56:27.367Z,19.19
2019-05-19T21:57:27.339Z,19.12
2019-05-19T21:58:27.392Z,19.12
2019-05-19T21:59:27.361Z,19.09
2019-05-19T22:00:27.308Z,19.04
2019-05-19T22:01:27.393Z,19.07
2019-05-19T22:02:27.329Z,19.02
2019-05-19T22:03:27.321Z,18.96
2019-05-19T22:04:29.335Z,19.08
2019-05-19T22:05:27.291Z,18.93
2019-05-19T22:06:27.286Z,18.96
2019-05-19T22:07:27.235Z,18.88
2019-05-19T22:08:27.218Z,18.95
2019-05-19T22:09:27.195Z,18.92
2019-05-19T22:10:27.228Z,18.84
2019-05-19T22:11:27.242Z,18.81
2019-05-19T22:12:27.273Z,18.84
2019-05-19T22:13:27.181Z,18.80
2019-05-19T22:14:27.299Z,18.78
2019-05-19T22:15:27.232Z,18.68
2019-05-19T22:16:27.170Z,18.66
2019-05-19T22:17:27.127Z,18.65
2019-05-19T22:18:27.793Z,18.66
2019-05-19T22:19:27.111Z,18.66
2019-05-19T22:20:27.114Z,18.58
2019-05-19T22:21:27.098Z,18.55
2019-05-19T22:22:27.088Z,18.49
2019-05-19T22:23:27.041Z,18.53
2019-05-19T22:24:27.049Z,18.56
2019-05-19T22:25:27.025Z,18.59
2019-05-19T22:26:27.012Z,18.50
2019-05-19T22:27:27.117Z,18.52
2019-05-19T22:28:26.994Z,18.37
2019-05-19T22:29:26.980Z,18.37
2019-05-19T22:30:26.986Z,18.50
2019-05-19T22:31:36.523Z,18.38
2019-05-19T22:32:27.959Z,18.35
2019-05-19T22:33:26.964Z,18.40
2019-05-19T22:34:26.975Z,18.25
2019-05-19T22:35:26.923Z,18.18
2019-05-19T22:36:26.895Z,18.25
2019-05-19T22:37:26.901Z,18.22
2019-05-19T22:38:26.885Z,18.15
2019-05-19T22:39:26.900Z,18.22
2019-05-19T22:40:26.862Z,18.10
2019-05-19T22:41:26.855Z,18.08
2019-05-19T22:42:26.831Z,18.20
2019-05-19T22:43:26.873Z,18.22
2019-05-19T22:44:26.865Z,18.19
2019-05-19T22:45:26.802Z,18.18
2019-05-19T22:46:26.811Z,18.04
2019-05-19T22:47:26.783Z,18.13
2019-05-19T22:48:26.972Z,18.10
2019-05-19T22:49:26.863Z,18.10
2019-05-19T22:50:26.746Z,18.03
2019-05-19T22:51:26.752Z,18.10
2019-05-19T22:52:26.732Z,18.10
2019-05-19T22:53:26.730Z,18.13
2019-05-19T22:54:26.708Z,18.13
2019-05-19T22:55:26.685Z,18.05
2019-05-19T22:56:26.674Z,18.05
2019-05-19T22:57:26.709Z,18.03
2019-05-19T22:58:26.652Z,18.04
2019-05-19T22:59:26.652Z,17.98
2019-05-19T23:00:26.639Z,18.07
2019-05-19T23:01:26.621Z,18.05
2019-05-19T23:02:26.630Z,18.08
2019-05-19T23:03:26.619Z,18.07
2019-05-19T23:04:26.611Z,18.05
2019-05-19T23:05:26.582Z,18.08
2019-05-19T23:06:26.561Z,18.11
2019-05-19T23:07:26.553Z,18.07
2019-05-19T23:08:26.545Z,18.08
2019-05-19T23:09:26.812Z,18.05
2019-05-19T23:10:26.549Z,18.04
2019-05-19T23:11:26.519Z,18.03
2019-05-19T23:12:26.496Z,17.95
2019-05-19T23:13:26.501Z,17.95
2019-05-19T23:14:26.473Z,17.95
2019-05-19T23:15:26.465Z,17.92
2019-05-19T23:16:26.507Z,17.90
2019-05-19T23:17:26.450Z,17.90
2019-05-19T23:18:26.440Z,17.79
2019-05-19T23:19:26.444Z,17.85
2019-05-19T23:20:26.407Z,17.82
2019-05-19T23:21:26.391Z,17.76
2019-05-19T23:22:26.381Z,17.79
2019-05-19T23:23:26.367Z,17.76
2019-05-19T23:24:26.393Z,17.71
2019-05-19T23:25:26.365Z,17.72
2019-05-19T23:26:26.339Z,17.78
2019-05-19T23:27:26.324Z,17.82
2019-05-19T23:28:26.339Z,17.65
2019-05-19T23:29:26.308Z,17.68
2019-05-19T23:30:26.307Z,17.63
2019-05-19T23:31:26.282Z,17.68
2019-05-19T23:32:26.262Z,17.65
2019-05-19T23:33:26.261Z,17.63
2019-05-19T23:34:26.254Z,17.60
2019-05-19T23:35:26.518Z,17.56
2019-05-19T23:36:26.221Z,17.48
2019-05-19T23:37:26.212Z,17.56
2019-05-19T23:38:26.205Z,17.49
2019-05-19T23:39:26.193Z,17.38
2019-05-19T23:40:26.185Z,17.46
2019-05-19T23:41:26.217Z,17.38
2019-05-19T23:42:26.159Z,17.39
2019-05-19T23:43:26.140Z,17.38
2019-05-19T23:44:26.153Z,17.39
2019-05-19T23:45:26.154Z,17.41
2019-05-19T23:46:26.145Z,17.39
2019-05-19T23:47:26.100Z,17.39
2019-05-19T23:48:26.085Z,17.51
2019-05-19T23:49:26.078Z,17.49
2019-05-19T23:50:26.085Z,17.42
2019-05-19T23:51:26.075Z,17.49
2019-05-19T23:52:26.105Z,17.42
2019-05-19T23:53:26.043Z,17.51
2019-05-19T23:54:26.015Z,17.42
2019-05-19T23:55:26.007Z,17.49
2019-05-19T23:56:26.022Z,17.38
2019-05-19T23:57:25.987Z,17.45
2019-05-19T23:58:26.021Z,17.41
2019-05-19T23:59:25.965Z,17.44
